Carcroft, United Kingdom
Current Conditions -  °F | °C
As of 12:20 PM on Friday 28 Nov 2014 (Local Time) from EGCN Reporting Station
Broken Clouds Broken Clouds  
Wind Chill: 52°   Ceiling: 1600
Heat Index: 52°   Visibility: 4mi
Dew Point: 50°   Wind: 7mph
Humidity: 94%   Direction: 60°ENE
Pressure: 29.74"   Gusts: NA
Location:  53.58°N, 1.18°W
Report Text: EGCN 281220Z 06006KT 7000 SCT008 BKN016 11/10 Q1007
Loading
Personal Weather Stations






























Interactive Weather Map New forecast layout! Learn more

10-Day Weather Forecast

Advertisements
Track Severe Weather on mobile